createdAt,value
2023-07-08T00:00:26.374Z,69.57
2023-07-08T00:02:53.656Z,69.60
2023-07-08T00:05:21.601Z,69.70
2023-07-08T00:07:48.521Z,69.62
2023-07-08T00:10:19.079Z,69.74
2023-07-08T00:12:52.206Z,69.79
2023-07-08T00:15:21.058Z,69.81
2023-07-08T00:17:48.195Z,69.76
2023-07-08T00:20:18.321Z,69.73
2023-07-08T00:22:47.294Z,69.90
2023-07-08T00:25:15.611Z,70.20
2023-07-08T00:27:42.870Z,70.19
2023-07-08T00:30:21.930Z,70.21
2023-07-08T00:32:54.265Z,70.33
2023-07-08T00:35:41.792Z,70.30
2023-07-08T00:38:15.434Z,70.24
2023-07-08T00:40:49.780Z,70.31
2023-07-08T00:43:19.436Z,70.49
2023-07-08T00:46:01.919Z,70.42
2023-07-08T00:48:31.126Z,70.47
2023-07-08T00:50:58.379Z,70.40
2023-07-08T00:53:27.550Z,70.46
2023-07-08T00:55:59.774Z,70.46
2023-07-08T00:58:30.139Z,70.35
2023-07-08T01:00:57.706Z,70.45
2023-07-08T01:03:25.252Z,70.52
2023-07-08T01:05:51.992Z,70.49
2023-07-08T01:08:19.435Z,70.41
2023-07-08T01:10:50.014Z,70.39
2023-07-08T01:13:16.719Z,70.44
2023-07-08T01:15:44.414Z,70.34
2023-07-08T01:18:12.694Z,70.38
2023-07-08T01:20:39.992Z,70.34
2023-07-08T01:23:06.735Z,70.33
2023-07-08T01:25:34.028Z,70.35
2023-07-08T01:28:00.717Z,70.35
2023-07-08T01:30:27.382Z,70.29
2023-07-08T01:33:00.074Z,70.27
2023-07-08T01:35:27.645Z,70.24
2023-07-08T01:37:59.863Z,70.26
2023-07-08T01:40:29.283Z,70.19
2023-07-08T01:42:56.620Z,70.22
2023-07-08T01:45:25.103Z,70.14
2023-07-08T01:48:00.294Z,70.22
2023-07-08T01:50:27.684Z,70.19
2023-07-08T01:52:54.421Z,70.17
2023-07-08T01:55:23.204Z,70.24
2023-07-08T01:57:51.973Z,70.18
2023-07-08T02:00:19.030Z,70.24
2023-07-08T02:02:46.236Z,70.26
2023-07-08T02:05:13.114Z,70.30
2023-07-08T02:07:41.142Z,70.28
2023-07-08T02:10:08.309Z,70.33
2023-07-08T02:12:35.219Z,70.31
2023-07-08T02:15:01.854Z,70.38
2023-07-08T02:17:29.620Z,70.34
2023-07-08T02:19:56.744Z,70.45
2023-07-08T02:22:23.605Z,70.44
2023-07-08T02:24:50.633Z,70.41
2023-07-08T02:27:17.202Z,70.46
2023-07-08T02:29:44.463Z,70.31
2023-07-08T02:32:11.081Z,70.44
2023-07-08T02:34:37.894Z,70.52
2023-07-08T02:37:04.800Z,70.45
2023-07-08T02:39:33.570Z,70.52
2023-07-08T02:42:01.632Z,70.56
2023-07-08T02:44:28.480Z,70.48
2023-07-08T02:46:54.902Z,70.38
2023-07-08T02:49:21.371Z,70.41
2023-07-08T02:51:49.119Z,70.44
2023-07-08T02:54:15.838Z,70.25
2023-07-08T02:56:42.299Z,70.30
2023-07-08T02:59:09.264Z,70.16
2023-07-08T03:01:41.856Z,70.19
2023-07-08T03:04:13.388Z,70.14
2023-07-08T03:06:44.188Z,70.08
2023-07-08T03:09:12.664Z,70.21
2023-07-08T03:11:42.011Z,70.23
2023-07-08T03:14:09.173Z,70.14
2023-07-08T03:16:38.564Z,70.27
2023-07-08T03:19:06.258Z,70.20
2023-07-08T03:21:33.861Z,70.31
2023-07-08T03:24:00.542Z,70.28
2023-07-08T03:26:30.536Z,70.24
2023-07-08T03:28:59.233Z,70.21
2023-07-08T03:31:26.458Z,70.11
2023-07-08T03:33:53.614Z,70.17
2023-07-08T03:36:23.276Z,70.22
2023-07-08T03:38:54.501Z,70.24
2023-07-08T03:41:21.500Z,70.16
2023-07-08T03:43:51.058Z,70.10
2023-07-08T03:46:21.338Z,70.05
2023-07-08T03:48:48.074Z,70.02
2023-07-08T03:51:25.737Z,70.07
2023-07-08T03:53:52.806Z,70.12
2023-07-08T03:56:20.101Z,70.13
2023-07-08T03:58:46.887Z,70.19
2023-07-08T04:01:16.913Z,70.10
2023-07-08T04:03:44.906Z,70.22
2023-07-08T04:06:12.817Z,70.38
2023-07-08T04:08:39.592Z,70.26
2023-07-08T04:11:06.382Z,70.33
2023-07-08T04:13:33.191Z,70.39
2023-07-08T04:16:01.032Z,70.26
2023-07-08T04:18:28.019Z,70.33
2023-07-08T04:23:24.401Z,70.32
2023-07-08T04:25:52.963Z,70.16
2023-07-08T04:28:19.869Z,70.19
2023-07-08T04:30:46.553Z,70.21
2023-07-08T04:33:14.413Z,70.16
2023-07-08T04:35:41.962Z,70.09
2023-07-08T04:38:18.031Z,69.94
2023-07-08T04:40:46.590Z,69.88
2023-07-08T04:43:13.487Z,69.82
2023-07-08T04:45:41.849Z,69.71
2023-07-08T04:48:14.100Z,69.50
2023-07-08T04:50:44.597Z,69.40
2023-07-08T04:53:11.681Z,69.37
2023-07-08T04:55:41.113Z,69.13
2023-07-08T04:58:07.557Z,69.10
2023-07-08T05:00:34.236Z,69.24
2023-07-08T05:03:01.640Z,69.34
2023-07-08T05:05:31.812Z,69.36
2023-07-08T05:07:58.466Z,69.23
2023-07-08T05:10:25.253Z,69.07
2023-07-08T05:12:51.833Z,68.90
2023-07-08T05:15:18.336Z,68.88
2023-07-08T05:17:44.941Z,68.86
2023-07-08T05:20:13.351Z,68.84
2023-07-08T05:22:40.528Z,69.00
2023-07-08T05:25:07.486Z,68.91
2023-07-08T05:27:35.099Z,68.94
2023-07-08T05:30:02.671Z,68.96
2023-07-08T05:32:29.658Z,68.94
2023-07-08T05:34:56.271Z,68.95
2023-07-08T05:37:25.654Z,69.08
2023-07-08T05:39:52.944Z,68.94
2023-07-08T05:42:22.799Z,68.88
2023-07-08T05:44:52.418Z,68.83
2023-07-08T05:47:19.206Z,68.85
2023-07-08T05:49:45.969Z,68.88
2023-07-08T05:52:12.812Z,68.79
2023-07-08T05:54:39.668Z,68.80
2023-07-08T05:57:07.217Z,68.77
2023-07-08T05:59:36.238Z,68.66
2023-07-08T06:02:03.954Z,68.58
2023-07-08T06:04:31.381Z,68.49
2023-07-08T06:06:58.100Z,68.41
2023-07-08T06:09:24.712Z,68.39
2023-07-08T06:11:51.624Z,68.27
2023-07-08T06:14:18.212Z,68.08
2023-07-08T06:16:47.009Z,68.04
2023-07-08T06:19:15.603Z,68.02
2023-07-08T06:21:42.382Z,67.82
2023-07-08T06:24:09.172Z,67.83
2023-07-08T06:26:36.217Z,67.73
2023-07-08T06:29:03.411Z,67.70
2023-07-08T06:31:30.745Z,67.54
2023-07-08T06:33:57.674Z,67.54
2023-07-08T06:36:24.322Z,67.58
2023-07-08T06:38:50.995Z,67.55
2023-07-08T06:41:17.742Z,67.66
2023-07-08T06:43:44.462Z,67.53
2023-07-08T06:46:19.510Z,67.39
2023-07-08T06:48:46.269Z,67.03
2023-07-08T06:51:16.993Z,66.70
2023-07-08T06:53:43.839Z,66.50
2023-07-08T06:56:11.128Z,66.04
2023-07-08T06:58:39.030Z,65.27
2023-07-08T07:01:05.611Z,64.81
2023-07-08T07:03:32.530Z,64.78
2023-07-08T07:05:59.178Z,64.98
2023-07-08T07:08:26.101Z,64.77
2023-07-08T07:10:53.398Z,64.79
2023-07-08T07:13:21.555Z,64.61
2023-07-08T07:15:52.207Z,64.27
2023-07-08T07:18:21.914Z,64.19
2023-07-08T07:20:53.888Z,64.07
2023-07-08T07:23:20.692Z,64.01
2023-07-08T07:25:50.594Z,64.04
2023-07-08T07:28:17.561Z,64.09
2023-07-08T07:30:45.251Z,64.05
2023-07-08T07:33:12.210Z,64.06
2023-07-08T07:35:45.416Z,64.19
2023-07-08T07:38:11.985Z,64.20
2023-07-08T07:40:40.236Z,64.44
2023-07-08T07:43:06.745Z,64.54
2023-07-08T07:45:33.940Z,64.51
2023-07-08T07:48:00.472Z,64.53
2023-07-08T07:50:27.498Z,64.74
2023-07-08T07:52:54.113Z,64.73
2023-07-08T07:55:20.706Z,64.65
2023-07-08T07:57:47.438Z,64.69
2023-07-08T08:00:14.642Z,64.70
2023-07-08T08:02:42.339Z,64.53
2023-07-08T08:05:09.073Z,64.35
2023-07-08T08:07:37.016Z,64.24
2023-07-08T08:10:04.275Z,63.99
2023-07-08T08:12:40.717Z,63.73
2023-07-08T08:15:11.658Z,63.76
2023-07-08T08:17:38.468Z,63.72
2023-07-08T08:20:06.786Z,63.27
2023-07-08T08:22:33.576Z,62.63
2023-07-08T08:25:00.237Z,61.97
2023-07-08T08:27:26.962Z,61.72
2023-07-08T08:29:53.421Z,61.75
2023-07-08T08:32:20.073Z,61.66
2023-07-08T08:34:47.778Z,61.74
2023-07-08T08:37:14.654Z,61.55
2023-07-08T08:39:41.136Z,61.12
2023-07-08T08:42:24.732Z,60.66
2023-07-08T08:44:51.125Z,60.48
2023-07-08T08:47:41.061Z,60.60
2023-07-08T08:50:26.290Z,60.76
2023-07-08T08:52:55.468Z,60.49
2023-07-08T08:55:25.523Z,60.19
2023-07-08T08:58:18.448Z,60.06
2023-07-08T09:00:59.425Z,59.87
2023-07-08T09:03:54.055Z,59.84
2023-07-08T09:06:23.673Z,59.63
2023-07-08T09:08:50.590Z,59.05
2023-07-08T09:11:20.706Z,58.66
2023-07-08T09:13:47.575Z,58.56
2023-07-08T09:16:42.449Z,58.70
2023-07-08T09:19:14.506Z,58.38
2023-07-08T09:21:50.062Z,58.25
2023-07-08T09:24:19.746Z,58.38
2023-07-08T09:26:46.834Z,57.97
2023-07-08T09:29:13.764Z,57.74
2023-07-08T09:31:42.560Z,57.74
2023-07-08T09:34:12.737Z,57.70
2023-07-08T09:36:41.943Z,57.72
2023-07-08T09:39:18.449Z,57.48
2023-07-08T09:41:45.916Z,57.48
2023-07-08T09:44:30.529Z,57.75
2023-07-08T09:46:58.877Z,57.70
2023-07-08T09:49:37.630Z,57.58
2023-07-08T09:52:04.872Z,57.27
2023-07-08T09:54:33.059Z,57.05
2023-07-08T09:57:26.254Z,57.35
2023-07-08T10:00:03.165Z,57.20
2023-07-08T10:02:50.458Z,57.34
2023-07-08T10:05:44.264Z,57.33
2023-07-08T10:08:22.038Z,57.30
2023-07-08T10:11:09.637Z,57.29
2023-07-08T10:14:00.659Z,57.41
2023-07-08T10:16:35.756Z,57.02
2023-07-08T10:19:05.272Z,56.46
2023-07-08T10:21:56.509Z,56.20
2023-07-08T10:24:29.226Z,55.92
2023-07-08T10:27:19.800Z,55.54
2023-07-08T10:30:17.573Z,55.64
2023-07-08T10:32:54.729Z,55.63
2023-07-08T10:35:26.093Z,55.33
2023-07-08T10:38:04.924Z,55.22
2023-07-08T10:40:35.985Z,55.54
2023-07-08T10:43:27.600Z,55.63
2023-07-08T10:46:17.038Z,55.99
2023-07-08T10:49:00.189Z,56.33
2023-07-08T10:51:39.502Z,56.68
2023-07-08T10:54:13.903Z,56.66
2023-07-08T10:57:03.645Z,56.82
2023-07-08T10:59:35.049Z,56.97
2023-07-08T11:02:25.752Z,56.82
2023-07-08T11:05:07.249Z,56.98
2023-07-08T11:07:42.470Z,57.11
2023-07-08T11:10:30.119Z,57.24
2023-07-08T11:13:03.760Z,57.35
2023-07-08T11:15:47.371Z,57.47
2023-07-08T11:18:17.612Z,57.72
2023-07-08T11:20:56.005Z,57.87
2023-07-08T11:23:27.432Z,57.88
2023-07-08T11:26:00.028Z,58.12
2023-07-08T11:28:26.685Z,58.43
2023-07-08T11:30:53.388Z,58.51
2023-07-08T11:33:22.210Z,58.50
2023-07-08T11:35:50.797Z,58.51
2023-07-08T11:38:20.774Z,58.53
2023-07-08T11:41:01.903Z,58.61
2023-07-08T11:43:45.185Z,58.72
2023-07-08T11:46:19.747Z,58.79
2023-07-08T11:48:48.536Z,58.80
2023-07-08T11:51:22.495Z,58.74
2023-07-08T11:54:04.270Z,58.70
2023-07-08T11:56:51.579Z,58.95
2023-07-08T11:59:19.229Z,58.82
2023-07-08T12:01:48.840Z,58.83
2023-07-08T12:04:17.694Z,58.90
2023-07-08T12:06:49.441Z,58.87
2023-07-08T12:09:28.545Z,58.99
2023-07-08T12:12:00.538Z,59.09
2023-07-08T12:14:27.932Z,59.25
2023-07-08T12:16:54.997Z,59.45
2023-07-08T12:19:22.474Z,59.30
2023-07-08T12:21:51.067Z,59.39
2023-07-08T12:24:18.897Z,59.40
2023-07-08T12:26:45.713Z,59.30
2023-07-08T12:29:13.938Z,59.42
2023-07-08T12:31:43.192Z,59.47
2023-07-08T12:34:15.432Z,59.53
2023-07-08T12:36:42.277Z,59.71
2023-07-08T12:39:11.386Z,59.72
2023-07-08T12:41:39.634Z,59.78
2023-07-08T12:44:14.550Z,59.93
2023-07-08T12:46:41.312Z,59.84
2023-07-08T12:49:09.195Z,59.79
2023-07-08T12:51:36.621Z,59.82
2023-07-08T12:54:03.289Z,59.78
2023-07-08T12:56:32.553Z,59.66
2023-07-08T12:59:00.026Z,59.84
2023-07-08T13:01:29.438Z,59.80
2023-07-08T13:04:01.032Z,59.90
2023-07-08T13:06:30.080Z,59.81
2023-07-08T13:09:02.974Z,59.51
2023-07-08T13:11:29.667Z,59.51
2023-07-08T13:14:04.209Z,59.60
2023-07-08T13:16:34.275Z,59.86
2023-07-08T13:19:01.243Z,60.00
2023-07-08T13:21:28.252Z,60.03
2023-07-08T13:23:55.070Z,60.01
2023-07-08T13:26:22.806Z,60.02
2023-07-08T13:28:50.126Z,60.07
2023-07-08T13:31:24.937Z,60.07
2023-07-08T13:33:53.734Z,59.98
2023-07-08T13:36:34.493Z,59.95
2023-07-08T13:39:07.416Z,60.06
2023-07-08T13:41:35.667Z,60.14
2023-07-08T13:44:06.633Z,60.20
2023-07-08T13:46:36.902Z,60.08
2023-07-08T13:49:22.935Z,59.97
2023-07-08T13:51:49.504Z,60.06
2023-07-08T13:54:21.056Z,60.25
2023-07-08T13:56:48.093Z,60.37
2023-07-08T13:59:24.654Z,60.42
2023-07-08T14:01:53.855Z,60.53
2023-07-08T14:04:27.915Z,60.55
2023-07-08T14:06:54.388Z,60.76
2023-07-08T14:09:22.470Z,60.76
2023-07-08T14:11:50.075Z,60.87
2023-07-08T14:14:16.999Z,61.03
2023-07-08T14:16:45.585Z,61.03
2023-07-08T14:19:18.384Z,61.06
2023-07-08T14:21:45.440Z,61.00
2023-07-08T14:24:13.545Z,61.04
2023-07-08T14:26:43.072Z,61.04
2023-07-08T14:29:09.962Z,61.05
2023-07-08T14:31:36.850Z,61.10
2023-07-08T14:34:13.921Z,61.24
2023-07-08T14:36:42.400Z,61.34
2023-07-08T14:39:13.975Z,61.39
2023-07-08T14:41:42.073Z,61.48
2023-07-08T14:44:22.373Z,61.52
2023-07-08T14:46:50.565Z,61.76
2023-07-08T14:49:21.597Z,61.88
2023-07-08T14:51:48.943Z,61.91
2023-07-08T14:54:15.539Z,61.97
2023-07-08T14:56:44.063Z,61.99
2023-07-08T14:59:16.526Z,62.17
2023-07-08T15:01:43.998Z,62.25
2023-07-08T15:04:11.689Z,62.23
2023-07-08T15:06:41.792Z,62.24
2023-07-08T15:09:09.076Z,62.24
2023-07-08T15:11:38.573Z,62.29
2023-07-08T15:14:07.008Z,62.29
2023-07-08T15:16:33.566Z,62.43
2023-07-08T15:19:00.553Z,62.48
2023-07-08T15:21:27.922Z,62.60
2023-07-08T15:23:55.102Z,62.63
2023-07-08T15:26:21.817Z,62.17
2023-07-08T15:28:51.904Z,61.61
2023-07-08T15:31:20.948Z,60.92
2023-07-08T15:33:47.905Z,60.69
2023-07-08T15:36:14.532Z,60.37
2023-07-08T15:38:44.057Z,60.06
2023-07-08T15:41:19.470Z,59.72
2023-07-08T15:43:46.613Z,59.57
2023-07-08T15:46:13.318Z,59.58
2023-07-08T15:48:40.286Z,59.71
2023-07-08T15:51:08.282Z,59.42
2023-07-08T15:53:35.057Z,59.23
2023-07-08T15:56:01.528Z,59.10
2023-07-08T15:58:32.480Z,59.04
2023-07-08T16:01:00.299Z,59.03
2023-07-08T16:03:31.087Z,59.10
2023-07-08T16:05:58.354Z,59.06
2023-07-08T16:08:26.506Z,58.91
2023-07-08T16:11:02.646Z,58.56
2023-07-08T16:13:32.325Z,58.35
2023-07-08T16:16:02.417Z,58.11
2023-07-08T16:18:30.058Z,57.59
2023-07-08T16:20:56.713Z,57.27
2023-07-08T16:23:24.792Z,57.23
2023-07-08T16:25:51.937Z,57.16
2023-07-08T16:28:34.743Z,57.02
2023-07-08T16:31:01.953Z,56.97
2023-07-08T16:33:29.258Z,56.85
2023-07-08T16:35:55.817Z,56.58
2023-07-08T16:38:23.545Z,56.59
2023-07-08T16:40:51.346Z,56.65
2023-07-08T16:43:26.969Z,56.75
2023-07-08T16:45:53.606Z,56.97
2023-07-08T16:48:21.372Z,56.97
2023-07-08T16:50:48.180Z,56.95
2023-07-08T16:53:14.816Z,57.13
2023-07-08T16:55:41.695Z,57.16
2023-07-08T16:58:14.439Z,57.09
2023-07-08T17:00:51.833Z,57.10
2023-07-08T17:03:18.432Z,57.09
2023-07-08T17:05:45.444Z,57.16
2023-07-08T17:08:13.465Z,56.91
2023-07-08T17:10:40.466Z,56.87
2023-07-08T17:13:06.933Z,56.93
2023-07-08T17:15:33.628Z,57.02
2023-07-08T17:18:01.979Z,57.02
2023-07-08T17:20:38.193Z,57.18
2023-07-08T17:23:10.943Z,57.27
2023-07-08T17:25:37.619Z,57.17
2023-07-08T17:28:04.253Z,57.07
2023-07-08T17:30:31.180Z,57.03
2023-07-08T17:32:58.547Z,57.03
2023-07-08T17:35:26.074Z,57.01
2023-07-08T17:37:53.125Z,57.07
2023-07-08T17:40:23.441Z,57.08
2023-07-08T17:42:52.612Z,57.01
2023-07-08T17:45:25.286Z,56.93
2023-07-08T17:47:52.392Z,56.83
2023-07-08T17:50:24.083Z,56.81
2023-07-08T17:52:52.518Z,56.71
2023-07-08T17:55:19.583Z,56.73
2023-07-08T17:57:48.855Z,56.70
2023-07-08T18:00:21.552Z,56.77
2023-07-08T18:02:48.210Z,56.71
2023-07-08T18:05:16.958Z,56.75
2023-07-08T18:07:44.761Z,56.79
2023-07-08T18:10:12.863Z,56.81
2023-07-08T18:12:39.736Z,56.78
2023-07-08T18:15:21.567Z,56.94
2023-07-08T18:17:52.889Z,56.99
2023-07-08T18:20:20.121Z,57.07
2023-07-08T18:22:49.169Z,57.13
2023-07-08T18:25:25.086Z,57.16
2023-07-08T18:27:52.221Z,57.16
2023-07-08T18:30:20.117Z,57.27
2023-07-08T18:32:49.328Z,57.31
2023-07-08T18:35:23.356Z,57.24
2023-07-08T18:37:50.776Z,57.27
2023-07-08T18:40:31.838Z,57.16
2023-07-08T18:43:04.900Z,56.95
2023-07-08T18:45:31.880Z,56.76
2023-07-08T18:47:58.971Z,56.59
2023-07-08T18:50:25.728Z,56.50
2023-07-08T18:52:53.864Z,56.48
2023-07-08T18:55:22.170Z,56.54
2023-07-08T18:57:48.711Z,56.49
2023-07-08T19:00:17.694Z,56.63
2023-07-08T19:02:55.787Z,56.47
2023-07-08T19:05:22.739Z,56.57
2023-07-08T19:07:49.738Z,56.48
2023-07-08T19:10:16.832Z,56.47
2023-07-08T19:12:48.098Z,56.64
2023-07-08T19:15:28.989Z,56.63
2023-07-08T19:17:56.566Z,56.70
2023-07-08T19:20:38.826Z,56.85
2023-07-08T19:23:07.770Z,56.86
2023-07-08T19:25:34.529Z,56.99
2023-07-08T19:28:01.165Z,57.05
2023-07-08T19:30:28.165Z,57.04
2023-07-08T19:32:56.460Z,56.95
2023-07-08T19:35:24.790Z,57.00
2023-07-08T19:37:52.231Z,57.06
2023-07-08T19:40:20.441Z,57.01
2023-07-08T19:42:48.500Z,56.93
2023-07-08T19:45:25.959Z,56.93
2023-07-08T19:47:53.577Z,56.95
2023-07-08T19:50:22.137Z,56.87
2023-07-08T19:52:49.396Z,57.02
2023-07-08T19:55:16.008Z,57.09
2023-07-08T19:57:52.311Z,57.13
2023-07-08T20:00:22.080Z,57.06
2023-07-08T20:02:50.168Z,57.04
2023-07-08T20:05:17.962Z,57.04
2023-07-08T20:07:45.482Z,57.04
2023-07-08T20:10:14.296Z,57.12
2023-07-08T20:12:41.822Z,56.85
2023-07-08T20:15:09.304Z,56.80
2023-07-08T20:17:36.478Z,56.66
2023-07-08T20:20:03.573Z,56.59
2023-07-08T20:22:32.273Z,56.45
2023-07-08T20:25:00.528Z,56.33
2023-07-08T20:27:27.609Z,56.30
2023-07-08T20:29:55.284Z,56.33
2023-07-08T20:32:21.725Z,56.27
2023-07-08T20:34:48.425Z,56.16
2023-07-08T20:37:15.372Z,56.07
2023-07-08T20:39:42.385Z,55.87
2023-07-08T20:42:12.987Z,55.80
2023-07-08T20:44:41.180Z,55.86
2023-07-08T20:47:15.500Z,55.67
2023-07-08T20:49:42.576Z,55.49
2023-07-08T20:52:12.506Z,55.41
2023-07-08T20:54:39.473Z,55.40
2023-07-08T20:57:11.551Z,55.20
2023-07-08T20:59:38.356Z,55.12
2023-07-08T21:02:23.064Z,55.00
2023-07-08T21:04:50.716Z,54.77
2023-07-08T21:07:17.662Z,54.70
2023-07-08T21:09:44.537Z,54.66
2023-07-08T21:12:11.543Z,54.61
2023-07-08T21:14:39.064Z,54.45
2023-07-08T21:17:26.030Z,54.46
2023-07-08T21:19:53.020Z,54.39
2023-07-08T21:22:19.684Z,54.37
2023-07-08T21:24:46.164Z,54.34
2023-07-08T21:27:20.501Z,54.38
2023-07-08T21:29:47.154Z,54.21
2023-07-08T21:32:13.933Z,54.26
2023-07-08T21:34:41.352Z,54.24
2023-07-08T21:37:09.782Z,54.09
2023-07-08T21:39:37.194Z,54.10
2023-07-08T21:42:06.061Z,54.00
2023-07-08T21:44:32.550Z,53.97
2023-07-08T21:46:59.120Z,53.87
2023-07-08T21:49:25.541Z,53.91
2023-07-08T21:51:52.397Z,54.02
2023-07-08T21:54:18.873Z,53.94
2023-07-08T21:56:45.345Z,53.86
2023-07-08T21:59:16.411Z,53.83
2023-07-08T22:01:43.065Z,53.82
2023-07-08T22:04:11.925Z,53.86
2023-07-08T22:06:39.693Z,53.80
2023-07-08T22:09:06.834Z,53.79
2023-07-08T22:11:35.149Z,53.80
2023-07-08T22:14:02.357Z,53.68
2023-07-08T22:16:30.518Z,53.60
2023-07-08T22:18:57.746Z,53.67
2023-07-08T22:21:28.723Z,53.82
2023-07-08T22:24:03.113Z,53.81
2023-07-08T22:26:30.866Z,53.76
2023-07-08T22:28:57.624Z,53.79
2023-07-08T22:31:26.781Z,53.76
2023-07-08T22:33:53.539Z,53.56
2023-07-08T22:36:20.276Z,53.53
2023-07-08T22:38:47.135Z,53.56
2023-07-08T22:41:13.913Z,53.52
2023-07-08T22:43:40.936Z,53.36
2023-07-08T22:46:08.929Z,53.50
2023-07-08T22:48:37.825Z,53.48
2023-07-08T22:51:04.262Z,53.51
2023-07-08T22:53:32.847Z,53.38
2023-07-08T22:55:59.834Z,53.35
2023-07-08T22:58:30.425Z,53.54
2023-07-08T23:00:57.258Z,53.50
2023-07-08T23:03:23.985Z,53.39
2023-07-08T23:05:52.254Z,53.14
2023-07-08T23:08:42.311Z,53.28
2023-07-08T23:11:12.173Z,53.37
2023-07-08T23:13:40.651Z,53.36
2023-07-08T23:16:16.500Z,53.31
2023-07-08T23:18:44.032Z,53.51
2023-07-08T23:21:10.765Z,53.41
2023-07-08T23:23:40.037Z,53.37
2023-07-08T23:26:14.416Z,53.32
2023-07-08T23:28:40.848Z,53.38
2023-07-08T23:31:09.761Z,53.30
2023-07-08T23:33:37.236Z,53.23
2023-07-08T23:36:05.785Z,53.31
2023-07-08T23:38:33.198Z,53.40
2023-07-08T23:40:59.844Z,53.33
2023-07-08T23:43:28.255Z,53.36
2023-07-08T23:45:56.409Z,53.29
2023-07-08T23:48:23.260Z,53.38
2023-07-08T23:50:50.023Z,53.37
2023-07-08T23:53:17.304Z,53.29
2023-07-08T23:55:47.034Z,53.12
2023-07-08T23:58:24.488Z,53.20
